Time;durP1;ratioP1;P1;durP2;ratioP2;P2;SDS_P1;SDS_P2;PMS_P1;PMS_P2;Temp;Humidity;BMP_temperature;BMP_pressure;BME280_temperature;BME280_humidity;BME280_pressure;Samples;Min_cycle;Max_cycle;Signal;HPM_P1;HPM_P2
2023/03/12 00:00:41;;;;;;;;;;;;;;;6.56;64.25;98467.06;5091457;28;871;-69
2023/03/12 00:03:07;;;;;;;;;;;;;;;6.42;65.10;98459.72;5091439;28;831;-71
2023/03/12 00:05:37;;;;;;;;;;;;;;;6.35;64.41;98463.31;5091403;28;867;-70
2023/03/12 00:08:04;;;;;;;;;;;;;;;6.28;65.77;98460.66;5091352;28;1955;-70
2023/03/12 00:10:31;;;;;;;;;;;;;;;6.20;66.57;98473.66;5091280;28;1283;-70
2023/03/12 00:12:58;;;;;;;;;;;;;;;6.10;65.92;98449.81;5091250;28;820;-69
2023/03/12 00:15:24;;;;;;;;;;;;;;;6.16;63.11;98463.88;5091309;28;796;-68
2023/03/12 00:17:51;;;;;;;;;;;;;;;6.19;63.35;98474.84;5091286;28;812;-67
2023/03/12 00:20:18;;;;;;;;;;;;;;;6.14;64.55;98480.75;5073141;28;1288;-66
2023/03/12 00:22:45;;;;;;;;;;;;;;;6.12;63.27;98483.13;5091267;28;827;-66
2023/03/12 00:25:13;;;;;;;;;;;;;;;6.03;64.02;98474.56;5093742;28;864;-66
2023/03/12 00:27:40;;;;;;;;;;;;;;;6.07;62.22;98494.53;5095123;28;1917;-65
2023/03/12 00:30:09;;;;;;;;;;;;;;;6.06;63.22;98487.47;5095067;28;877;-68
2023/03/12 00:32:36;;;;;;;;;;;;;;;5.90;64.09;98480.50;5095173;28;851;-65
2023/03/12 00:35:03;;;;;;;;;;;;;;;5.83;64.79;98505.25;5094935;28;882;-67
2023/03/12 00:37:31;;;;;;;;;;;;;;;5.79;64.57;98504.50;5095075;28;839;-66
2023/03/12 00:40:00;;;;;;;;;;;;;;;5.80;64.26;98506.03;5094941;28;843;-65
2023/03/12 00:42:27;;;;;;;;;;;;;;;5.81;64.41;98499.38;5094899;28;828;-66
2023/03/12 00:44:53;;;;;;;;;;;;;;;5.67;66.43;98508.47;5094980;28;871;-67
2023/03/12 00:47:20;;;;;;;;;;;;;;;5.52;66.02;98494.06;5094801;28;1954;-67
2023/03/12 00:49:47;;;;;;;;;;;;;;;5.59;65.00;98506.97;5094748;28;898;-67
2023/03/12 00:52:13;;;;;;;;;;;;;;;5.61;65.81;98509.28;5094768;28;803;-67
2023/03/12 00:54:40;;;;;;;;;;;;;;;5.58;64.83;98508.13;5094560;28;874;-68
2023/03/12 00:57:06;;;;;;;;;;;;;;;5.55;65.66;98514.44;5094638;28;875;-66
2023/03/12 00:59:33;;;;;;;;;;;;;;;5.47;64.67;98512.91;5094583;28;844;-67
2023/03/12 01:01:59;;;;;;;;;;;;;;;5.56;65.23;98523.44;5094589;28;891;-66
2023/03/12 01:04:26;;;;;;;;;;;;;;;5.48;66.03;98514.44;5094552;28;816;-66
2023/03/12 01:06:54;;;;;;;;;;;;;;;5.45;65.67;98520.75;5094373;28;1889;-67
2023/03/12 01:09:20;;;;;;;;;;;;;;;5.47;65.98;98527.38;5094397;28;1323;-69
2023/03/12 01:11:47;;;;;;;;;;;;;;;5.50;64.86;98528.53;5094387;28;858;-66
2023/03/12 01:14:13;;;;;;;;;;;;;;;5.41;66.32;98530.94;5076199;28;1337;-66
2023/03/12 01:16:40;;;;;;;;;;;;;;;5.31;67.49;98529.78;5094290;28;978;-66
2023/03/12 01:19:06;;;;;;;;;;;;;;;5.40;66.06;98535.66;5094317;28;831;-67
2023/03/12 01:21:32;;;;;;;;;;;;;;;5.33;66.65;98527.44;5094170;28;807;-67
2023/03/12 01:23:59;;;;;;;;;;;;;;;5.25;64.97;98523.19;5094108;28;926;-67
2023/03/12 01:26:26;;;;;;;;;;;;;;;5.44;64.21;98528.19;5094095;28;973;-67
2023/03/12 01:28:52;;;;;;;;;;;;;;;5.50;64.02;98532.09;5093973;28;1909;-65
2023/03/12 01:31:19;;;;;;;;;;;;;;;5.55;63.19;98528.13;5094077;28;828;-67
2023/03/12 01:33:49;;;;;;;;;;;;;;;5.43;63.89;98512.13;5093959;28;851;-65
2023/03/12 01:36:23;;;;;;;;;;;;;;;5.46;63.70;98522.28;5092590;28;848;-65
2023/03/12 01:38:50;;;;;;;;;;;;;;;5.42;64.20;98516.03;5075594;28;1215;-65
2023/03/12 01:41:17;;;;;;;;;;;;;;;5.36;64.31;98512.19;5093832;28;815;-65
2023/03/12 01:43:44;;;;;;;;;;;;;;;5.30;65.76;98511.81;5093712;28;895;-65
2023/03/12 01:46:16;;;;;;;;;;;;;;;5.40;63.78;98505.50;5093805;28;839;-66
2023/03/12 01:48:44;;;;;;;;;;;;;;;5.41;63.50;98503.53;5093806;28;1889;-67
2023/03/12 01:51:12;;;;;;;;;;;;;;;5.47;63.62;98512.91;5093634;28;893;-67
2023/03/12 01:53:40;;;;;;;;;;;;;;;5.37;63.98;98521.94;5093489;28;807;-67
2023/03/12 01:56:08;;;;;;;;;;;;;;;5.23;64.97;98520.84;5075357;28;1257;-69
2023/03/12 01:58:36;;;;;;;;;;;;;;;5.22;64.98;98516.53;5093410;28;928;-67
2023/03/12 02:01:03;;;;;;;;;;;;;;;5.17;65.32;98530.66;5093414;28;887;-69
2023/03/12 02:03:31;;;;;;;;;;;;;;;5.18;64.68;98526.72;5093412;28;832;-66
2023/03/12 02:06:05;;;;;;;;;;;;;;;5.12;65.90;98555.69;5093283;28;872;-68
2023/03/12 02:08:36;;;;;;;;;;;;;;;5.10;65.04;98538.91;5093316;28;1949;-71
2023/03/12 02:11:03;;;;;;;;;;;;;;;5.08;65.86;98547.50;5092959;28;1235;-68
2023/03/12 02:13:30;;;;;;;;;;;;;;;5.04;66.49;98535.78;5093118;28;827;-67
2023/03/12 02:15:56;;;;;;;;;;;;;;;5.13;65.94;98545.53;5074978;28;1466;-67
2023/03/12 02:18:23;;;;;;;;;;;;;;;5.07;66.51;98547.88;5093013;28;878;-66
2023/03/12 02:20:55;;;;;;;;;;;;;;;4.89;67.49;98558.91;5093209;28;840;-66
2023/03/12 02:23:27;;;;;;;;;;;;;;;4.98;66.36;98563.97;5093132;28;835;-65
2023/03/12 02:25:54;;;;;;;;;;;;;;;4.97;66.08;98590.56;5093188;28;863;-65
2023/03/12 02:28:24;;;;;;;;;;;;;;;4.92;66.34;98577.25;5092845;28;1969;-62
2023/03/12 02:30:52;;;;;;;;;;;;;;;4.89;66.29;98587.06;5092813;28;870;-65
2023/03/12 02:33:18;;;;;;;;;;;;;;;4.85;67.00;98596.44;5092752;28;843;-64
2023/03/12 02:35:46;;;;;;;;;;;;;;;4.66;67.79;98600.38;5092692;28;844;-64
2023/03/12 02:38:33;;;;;;;;;;;;;;;4.56;68.13;98603.91;5092707;28;831;-65
2023/03/12 02:41:26;;;;;;;;;;;;;;;4.50;68.65;98611.69;5092967;28;922;-63
2023/03/12 02:43:57;;;;;;;;;;;;;;;4.49;68.82;98621.88;5089052;28;953;-65
2023/03/12 02:46:24;;;;;;;;;;;;;;;4.51;69.28;98626.97;5092462;28;922;-66
2023/03/12 02:48:51;;;;;;;;;;;;;;;4.47;69.83;98635.16;5092227;28;1947;-65
2023/03/12 02:51:17;;;;;;;;;;;;;;;4.29;70.75;98637.88;5092436;28;891;-64
2023/03/12 02:53:45;;;;;;;;;;;;;;;4.35;70.51;98670.31;5092272;28;887;-64
2023/03/12 02:56:11;;;;;;;;;;;;;;;4.21;70.99;98671.84;5092684;28;922;-64
2023/03/12 02:58:37;;;;;;;;;;;;;;;4.10;71.61;98671.06;5092344;28;823;-64
2023/03/12 03:01:04;;;;;;;;;;;;;;;4.14;70.45;98685.53;5092290;28;808;-64
2023/03/12 03:03:31;;;;;;;;;;;;;;;4.20;71.27;98675.75;5092178;28;835;-65
2023/03/12 03:05:58;;;;;;;;;;;;;;;4.21;70.11;98654.66;5092233;28;1019;-66
2023/03/12 03:08:24;;;;;;;;;;;;;;;4.29;70.56;98659.75;5091993;28;1949;-65
2023/03/12 03:10:51;;;;;;;;;;;;;;;4.39;69.35;98665.63;5091821;28;1136;-65
2023/03/12 03:13:18;;;;;;;;;;;;;;;4.31;69.67;98651.19;5092048;28;847;-65
2023/03/12 03:15:44;;;;;;;;;;;;;;;4.24;70.67;98640.97;5092026;28;891;-65
2023/03/12 03:18:14;;;;;;;;;;;;;;;4.15;71.17;98635.13;5091935;28;891;-64
2023/03/12 03:20:43;;;;;;;;;;;;;;;4.27;69.55;98653.91;5091918;28;861;-65
2023/03/12 03:23:10;;;;;;;;;;;;;;;4.28;69.51;98657.41;5091806;28;831;-65
2023/03/12 03:25:36;;;;;;;;;;;;;;;4.29;68.88;98673.44;5091898;28;886;-65
2023/03/12 03:28:03;;;;;;;;;;;;;;;4.13;70.31;98664.03;5091798;28;1906;-64
2023/03/12 03:30:29;;;;;;;;;;;;;;;4.07;70.21;98664.38;5091804;28;831;-64
2023/03/12 03:32:56;;;;;;;;;;;;;;;4.08;69.56;98667.91;5073550;28;1385;-63
2023/03/12 03:35:23;;;;;;;;;;;;;;;4.08;69.79;98687.06;5091739;28;808;-67
2023/03/12 03:37:49;;;;;;;;;;;;;;;4.08;69.33;98700.75;5091725;28;1039;-65
2023/03/12 03:40:16;;;;;;;;;;;;;;;4.13;68.72;98694.88;5091635;28;902;-64
2023/03/12 03:42:43;;;;;;;;;;;;;;;4.18;69.67;98721.88;5091630;28;851;-64
2023/03/12 03:45:10;;;;;;;;;;;;;;;4.20;69.30;98719.50;5091867;28;902;-64
2023/03/12 03:47:36;;;;;;;;;;;;;;;4.19;69.02;98709.75;5091488;28;1886;-66
2023/03/12 03:50:03;;;;;;;;;;;;;;;4.10;69.29;98733.94;5091623;28;815;-67
2023/03/12 03:52:31;;;;;;;;;;;;;;;4.00;69.13;98723.75;5091514;28;843;-65
2023/03/12 03:54:58;;;;;;;;;;;;;;;3.99;68.92;98739.38;5091442;28;871;-66
2023/03/12 03:57:25;;;;;;;;;;;;;;;3.98;69.08;98739.75;5091648;28;898;-65
2023/03/12 03:59:52;;;;;;;;;;;;;;;4.09;68.26;98746.03;5093667;28;824;-65
2023/03/12 04:02:18;;;;;;;;;;;;;;;4.09;68.04;98765.19;5095711;28;855;-66
2023/03/12 04:04:44;;;;;;;;;;;;;;;4.01;69.23;98752.66;5095745;28;839;-65
2023/03/12 04:07:11;;;;;;;;;;;;;;;3.89;69.79;98740.88;5095502;28;1910;-67
2023/03/12 04:09:38;;;;;;;;;;;;;;;3.81;69.77;98735.75;5095560;28;1180;-67
2023/03/12 04:12:05;;;;;;;;;;;;;;;3.86;69.61;98746.31;5095728;28;839;-66
2023/03/12 04:14:31;;;;;;;;;;;;;;;3.95;68.54;98744.03;5095821;28;851;-65
2023/03/12 04:16:58;;;;;;;;;;;;;;;4.00;67.48;98751.09;5095398;28;839;-66
2023/03/12 04:19:24;;;;;;;;;;;;;;;4.01;68.20;98758.13;5095440;28;902;-65
2023/03/12 04:21:50;;;;;;;;;;;;;;;3.99;68.35;98754.97;5095367;28;918;-65
2023/03/12 04:24:19;;;;;;;;;;;;;;;4.03;67.39;98758.50;5095310;28;887;-67
2023/03/12 04:26:46;;;;;;;;;;;;;;;3.87;68.57;98767.03;5095190;28;878;-67
2023/03/12 04:29:12;;;;;;;;;;;;;;;3.82;68.66;98770.94;5095181;28;1910;-68
2023/03/12 04:31:39;;;;;;;;;;;;;;;3.73;69.34;98783.34;5095162;28;824;-68
2023/03/12 04:34:05;;;;;;;;;;;;;;;3.74;69.38;98784.94;5095072;28;871;-68
2023/03/12 04:36:32;;;;;;;;;;;;;;;3.65;69.87;98798.94;5095277;28;820;-67
2023/03/12 04:38:58;;;;;;;;;;;;;;;3.60;70.16;98800.06;5076746;28;1408;-66
2023/03/12 04:41:25;;;;;;;;;;;;;;;3.67;68.29;98802.06;5095031;28;859;-66
2023/03/12 04:43:51;;;;;;;;;;;;;;;3.82;68.40;98816.59;5094836;28;819;-65
2023/03/12 04:46:18;;;;;;;;;;;;;;;3.77;68.14;98820.47;5094964;28;824;-66
2023/03/12 04:48:45;;;;;;;;;;;;;;;3.78;67.86;98843.91;5094898;28;1882;-65
2023/03/12 04:51:11;;;;;;;;;;;;;;;3.74;67.84;98845.06;5094726;28;819;-65
2023/03/12 04:53:39;;;;;;;;;;;;;;;3.68;69.25;98850.09;5095034;28;862;-65
2023/03/12 04:56:06;;;;;;;;;;;;;;;3.75;67.18;98869.25;5094712;28;839;-66
2023/03/12 04:58:32;;;;;;;;;;;;;;;3.73;68.62;98866.13;5094686;28;1049;-65
2023/03/12 05:00:59;;;;;;;;;;;;;;;3.82;68.15;98863.88;5094698;28;823;-67
2023/03/12 05:03:26;;;;;;;;;;;;;;;3.93;67.10;98869.41;5094566;28;894;-66
2023/03/12 05:05:52;;;;;;;;;;;;;;;4.02;66.84;98874.53;5094498;28;879;-66
2023/03/12 05:08:19;;;;;;;;;;;;;;;4.22;66.08;98875.03;5076143;28;1893;-67
2023/03/12 05:10:46;;;;;;;;;;;;;;;4.30;65.93;98871.19;5093902;28;1375;-66
2023/03/12 05:13:15;;;;;;;;;;;;;;;4.32;65.54;98890.72;5094386;28;864;-66
2023/03/12 05:15:42;;;;;;;;;;;;;;;4.35;65.82;98902.84;5094559;28;887;-67
2023/03/12 05:18:15;;;;;;;;;;;;;;;4.37;66.10;98898.56;5094198;28;812;-65
2023/03/12 05:20:41;;;;;;;;;;;;;;;4.42;65.79;98913.88;5094120;28;844;-66
2023/03/12 05:23:07;;;;;;;;;;;;;;;4.53;65.09;98922.91;5094222;28;895;-67
2023/03/12 05:25:39;;;;;;;;;;;;;;;4.87;64.31;98919.94;5094004;28;893;-68
2023/03/12 05:28:06;;;;;;;;;;;;;;;5.13;63.78;98932.53;5093988;28;1985;-67
2023/03/12 05:30:31;;;;;;;;;;;;;;;5.18;62.66;98923.94;5093991;28;911;-69
2023/03/12 05:32:58;;;;;;;;;;;;;;;5.24;63.63;98938.03;5093938;28;867;-67
2023/03/12 05:35:25;;;;;;;;;;;;;;;5.32;62.33;98950.59;5093944;28;820;-66
2023/03/12 05:37:51;;;;;;;;;;;;;;;5.30;62.18;98944.72;5075703;28;1353;-67
2023/03/12 05:40:18;;;;;;;;;;;;;;;5.44;62.49;98946.69;5093835;28;899;-66
2023/03/12 05:42:45;;;;;;;;;;;;;;;5.38;62.31;98957.25;5093827;28;835;-68
2023/03/12 05:45:11;;;;;;;;;;;;;;;5.53;62.35;98945.16;5093695;28;886;-70
2023/03/12 05:47:38;;;;;;;;;;;;;;;5.63;60.86;98946.34;5093688;28;1894;-66
2023/03/12 05:50:05;;;;;;;;;;;;;;;5.61;61.80;98973.38;5093559;28;883;-67
2023/03/12 05:52:32;;;;;;;;;;;;;;;5.59;61.84;98981.19;5093581;28;828;-68
2023/03/12 05:54:58;;;;;;;;;;;;;;;5.66;61.19;98988.66;5093568;28;855;-68
2023/03/12 05:57:25;;;;;;;;;;;;;;;5.95;60.45;98981.25;5093507;28;890;-67
2023/03/12 05:59:52;;;;;;;;;;;;;;;5.91;60.61;98983.97;5093480;28;843;-68
2023/03/12 06:02:18;;;;;;;;;;;;;;;6.20;59.79;98984.00;5093408;28;894;-66
2023/03/12 06:04:45;;;;;;;;;;;;;;;6.45;58.75;98992.22;5093415;28;894;-68
2023/03/12 06:07:12;;;;;;;;;;;;;;;6.53;58.77;98991.03;5093227;28;1897;-65
2023/03/12 06:09:43;;;;;;;;;;;;;;;6.32;60.08;98983.59;5093337;28;1220;-67
2023/03/12 06:12:10;;;;;;;;;;;;;;;6.12;59.88;99012.63;5093500;28;847;-68
2023/03/12 06:14:36;;;;;;;;;;;;;;;6.23;60.54;99021.66;5093161;28;894;-66
2023/03/12 06:17:02;;;;;;;;;;;;;;;6.33;60.24;99025.56;5093098;28;856;-66
2023/03/12 06:19:29;;;;;;;;;;;;;;;6.44;59.50;99033.78;5093097;28;910;-67
2023/03/12 06:21:55;;;;;;;;;;;;;;;6.83;59.80;99000.78;5092286;28;922;-67
2023/03/12 06:24:21;;;;;;;;;;;;;;;7.05;58.51;98996.00;5093209;28;903;-66
2023/03/12 06:26:48;;;;;;;;;;;;;;;7.33;55.52;99025.31;5092961;28;914;-67
2023/03/12 06:29:14;;;;;;;;;;;;;;;7.60;56.61;99032.28;5092776;28;1898;-67
2023/03/12 06:31:42;;;;;;;;;;;;;;;7.89;55.96;99033.66;5092856;28;921;-67
2023/03/12 06:34:09;;;;;;;;;;;;;;;7.76;55.45;99038.06;5074644;28;1201;-67
2023/03/12 06:36:36;;;;;;;;;;;;;;;7.46;55.34;99053.16;5074420;28;1298;-67
2023/03/12 06:39:05;;;;;;;;;;;;;;;7.22;56.66;99054.03;5093025;28;883;-66
2023/03/12 06:41:32;;;;;;;;;;;;;;;7.67;56.33;99059.75;5092657;28;885;-66
2023/03/12 06:44:02;;;;;;;;;;;;;;;8.14;53.62;99058.28;5092634;28;864;-65
2023/03/12 06:46:31;;;;;;;;;;;;;;;8.12;53.09;99054.38;5092733;28;906;-64
2023/03/12 06:48:57;;;;;;;;;;;;;;;8.30;52.70;99062.47;5092290;28;2379;-66
2023/03/12 06:51:24;;;;;;;;;;;;;;;7.84;52.88;99058.88;5092468;28;906;-66
2023/03/12 06:53:51;;;;;;;;;;;;;;;7.64;52.07;99075.09;5092399;28;924;-65
2023/03/12 06:56:17;;;;;;;;;;;;;;;7.78;53.23;99079.72;5092425;28;887;-67
2023/03/12 06:58:44;;;;;;;;;;;;;;;7.91;52.89;99086.31;5092315;28;827;-66
2023/03/12 07:01:10;;;;;;;;;;;;;;;8.32;51.85;99093.16;5074055;28;1331;-66
2023/03/12 07:03:36;;;;;;;;;;;;;;;8.47;51.52;99088.34;5092281;28;929;-66
2023/03/12 07:06:03;;;;;;;;;;;;;;;8.56;50.94;99091.44;5092310;28;914;-67
2023/03/12 07:08:30;;;;;;;;;;;;;;;8.63;51.64;99105.16;5092161;28;1942;-66
2023/03/12 07:10:57;;;;;;;;;;;;;;;8.35;51.13;99106.91;5091958;28;1322;-67
2023/03/12 07:13:24;;;;;;;;;;;;;;;7.79;51.36;99130.81;5092166;28;910;-68
2023/03/12 07:15:50;;;;;;;;;;;;;;;7.58;51.57;99109.69;5092029;28;906;-68
2023/03/12 07:18:18;;;;;;;;;;;;;;;7.75;52.12;99141.84;5091951;28;902;-68
2023/03/12 07:21:21;;;;;;;;;;;;;;;8.01;52.35;99141.72;5092204;28;907;-67
2023/03/12 07:23:52;;;;;;;;;;;;;;;8.28;50.86;99147.44;5091908;28;957;-66
2023/03/12 07:32:25;;;;;;;;;;;;;;;8.73;51.07;99156.63;5092151;28;606;-66
2023/03/12 07:34:52;;;;;;;;;;;;;;;8.97;48.58;99167.84;5091889;28;867;-68
2023/03/12 07:37:18;;;;;;;;;;;;;;;8.94;50.43;99174.97;5091914;28;804;-67
2023/03/12 07:39:46;;;;;;;;;;;;;;;9.81;49.99;99172.09;5092108;28;906;-66
2023/03/12 07:42:12;;;;;;;;;;;;;;;9.86;48.45;99168.09;5073681;28;1434;-65
2023/03/12 07:44:46;;;;;;;;;;;;;;;9.52;46.82;99175.19;5073751;28;1231;-65
2023/03/12 07:47:14;;;;;;;;;;;;;;;8.92;48.15;99169.06;5073271;28;1906;-65
2023/03/12 07:49:41;;;;;;;;;;;;;;;8.63;48.52;99192.53;5091601;28;828;-66
2023/03/12 07:52:10;;;;;;;;;;;;;;;8.43;48.33;99204.06;5091675;28;1013;-71
2023/03/12 07:54:37;;;;;;;;;;;;;;;8.47;49.16;99199.31;5091608;28;848;-66
2023/03/12 07:57:11;;;;;;;;;;;;;;;8.78;49.05;99189.25;5091451;28;918;-65
2023/03/12 07:59:38;;;;;;;;;;;;;;;9.08;48.58;99196.09;5091485;28;910;-67
2023/03/12 08:02:07;;;;;;;;;;;;;;;8.89;48.35;99191.91;5091469;28;844;-71
2023/03/12 08:04:35;;;;;;;;;;;;;;;8.57;47.66;99208.69;5073560;28;1231;-70
2023/03/12 08:07:03;;;;;;;;;;;;;;;8.61;47.11;99203.94;5091691;28;1890;-67
2023/03/12 08:09:29;;;;;;;;;;;;;;;8.78;49.59;99197.50;5091864;28;1116;-66
2023/03/12 08:11:55;;;;;;;;;;;;;;;9.10;48.48;99188.19;5092093;28;804;-67
2023/03/12 08:14:22;;;;;;;;;;;;;;;9.55;47.19;99184.63;5073190;28;1305;-68
2023/03/12 08:16:49;;;;;;;;;;;;;;;8.74;47.44;99199.50;5091185;28;899;-66
2023/03/12 08:19:19;;;;;;;;;;;;;;;7.72;50.33;99213.34;5091278;28;875;-66
2023/03/12 08:21:45;;;;;;;;;;;;;;;7.98;51.42;99207.38;5073715;28;1228;-67
2023/03/12 08:24:11;;;;;;;;;;;;;;;8.81;49.30;99208.91;5091542;28;915;-68
2023/03/12 08:26:39;;;;;;;;;;;;;;;9.54;47.58;99216.19;5091408;28;899;-67
2023/03/12 08:29:06;;;;;;;;;;;;;;;9.55;46.55;99223.25;5091385;28;1898;-67
2023/03/12 08:31:32;;;;;;;;;;;;;;;9.72;46.63;99232.53;5091518;28;918;-67
2023/03/12 08:33:59;;;;;;;;;;;;;;;9.93;46.58;99229.53;5091328;28;827;-67
2023/03/12 08:36:29;;;;;;;;;;;;;;;10.25;44.51;99227.59;5091274;28;905;-65
2023/03/12 08:38:56;;;;;;;;;;;;;;;10.05;46.07;99221.91;5091190;28;823;-68
2023/03/12 08:41:26;;;;;;;;;;;;;;;10.25;44.59;99219.31;5090978;28;939;-69
2023/03/12 08:43:53;;;;;;;;;;;;;;;10.42;44.46;99227.38;5091162;28;816;-67
2023/03/12 08:46:19;;;;;;;;;;;;;;;10.39;46.74;99222.69;5093816;28;847;-67
2023/03/12 08:48:46;;;;;;;;;;;;;;;10.63;44.62;99228.28;5076530;28;1886;-67
2023/03/12 08:51:12;;;;;;;;;;;;;;;10.39;44.30;99216.38;5076602;28;1164;-67
2023/03/12 08:53:40;;;;;;;;;;;;;;;10.27;45.53;99228.75;5076536;28;1271;-67
2023/03/12 08:56:07;;;;;;;;;;;;;;;10.50;45.71;99219.78;5094698;28;878;-66
2023/03/12 08:58:33;;;;;;;;;;;;;;;10.51;44.01;99228.84;5094858;28;890;-69
2023/03/12 09:01:00;;;;;;;;;;;;;;;10.79;45.13;99224.88;5094550;28;867;-68
2023/03/12 09:03:25;;;;;;;;;;;;;;;10.79;44.52;99222.91;5094670;28;862;-68
2023/03/12 09:06:01;;;;;;;;;;;;;;;10.80;44.16;99218.94;5094647;28;831;-68
2023/03/12 09:08:28;;;;;;;;;;;;;;;10.73;43.84;99219.06;5094384;28;1894;-67
2023/03/12 09:10:55;;;;;;;;;;;;;;;11.01;45.21;99219.81;5094134;28;1257;-69
2023/03/12 09:13:21;;;;;;;;;;;;;;;11.50;42.59;99231.25;5094349;28;882;-68
2023/03/12 09:15:48;;;;;;;;;;;;;;;11.94;41.36;99222.94;5094236;28;823;-67
2023/03/12 09:18:15;;;;;;;;;;;;;;;11.83;41.67;99225.88;5094315;28;1087;-68
2023/03/12 09:20:42;;;;;;;;;;;;;;;11.48;40.50;99208.75;5094229;28;882;-67
2023/03/12 09:23:09;;;;;;;;;;;;;;;10.75;40.91;99237.97;5094195;28;851;-69
2023/03/12 09:25:35;;;;;;;;;;;;;;;10.59;42.95;99227.56;5094110;28;851;-69
2023/03/12 09:28:02;;;;;;;;;;;;;;;10.35;42.81;99235.00;5094305;28;1914;-68
2023/03/12 09:30:29;;;;;;;;;;;;;;;10.19;42.12;99227.25;5094048;28;871;-67
2023/03/12 09:32:56;;;;;;;;;;;;;;;10.17;43.23;99232.41;5094021;28;906;-68
2023/03/12 09:35:22;;;;;;;;;;;;;;;10.25;43.19;99230.34;5093919;28;874;-66
2023/03/12 09:37:49;;;;;;;;;;;;;;;10.30;43.52;99229.91;5094000;28;883;-69
2023/03/12 10:08:56;;;;;;;;;;;;;;;11.18;43.10;99262.19;6018347;22;1658;-58
2023/03/12 10:11:22;;;;;;;;;;;;;;;11.36;41.11;99250.88;5053107;28;929;-58
2023/03/12 10:13:58;;;;;;;;;;;;;;;11.40;40.91;99259.88;5053311;28;819;-57
2023/03/12 10:16:40;;;;;;;;;;;;;;;11.92;40.05;99264.13;5052136;28;1213;-57
2023/03/12 10:19:20;;;;;;;;;;;;;;;12.09;39.09;99256.69;5052989;28;878;-57
2023/03/12 10:21:57;;;;;;;;;;;;;;;12.63;39.58;99257.13;5052899;28;842;-57
2023/03/12 10:24:34;;;;;;;;;;;;;;;13.24;38.38;99272.34;5052878;28;866;-57
2023/03/12 10:27:01;;;;;;;;;;;;;;;13.50;36.84;99260.66;5052758;28;922;-57
2023/03/12 10:29:34;;;;;;;;;;;;;;;13.30;36.05;99269.09;5052727;28;1975;-57
2023/03/12 10:32:07;;;;;;;;;;;;;;;12.69;38.20;99271.25;5052726;28;823;-57
2023/03/12 10:34:42;;;;;;;;;;;;;;;11.85;38.32;99279.63;5052700;28;890;-57
2023/03/12 10:37:20;;;;;;;;;;;;;;;11.53;39.18;99279.44;5052541;28;1094;-58
2023/03/12 10:39:47;;;;;;;;;;;;;;;11.28;38.49;99272.31;5052473;28;869;-58
2023/03/12 10:42:21;;;;;;;;;;;;;;;11.09;39.20;99276.56;5052500;28;855;-58
2023/03/12 10:44:50;;;;;;;;;;;;;;;10.89;40.08;99279.25;5052670;28;827;-58
2023/03/12 10:47:23;;;;;;;;;;;;;;;11.01;39.87;99280.66;5052316;28;1914;-58
2023/03/12 10:49:52;;;;;;;;;;;;;;;11.28;39.41;99280.63;5052331;28;875;-58
2023/03/12 10:52:22;;;;;;;;;;;;;;;11.28;39.26;99279.84;5052385;28;875;-58
2023/03/12 10:54:50;;;;;;;;;;;;;;;11.17;38.91;99280.78;5050908;28;1191;-58
2023/03/12 10:57:19;;;;;;;;;;;;;;;10.94;40.75;99280.75;5052200;28;890;-57
2023/03/12 10:59:46;;;;;;;;;;;;;;;10.70;40.21;99288.22;5052384;28;827;-58
2023/03/12 11:02:29;;;;;;;;;;;;;;;10.41;40.44;99292.13;5052368;28;812;-58
2023/03/12 11:04:56;;;;;;;;;;;;;;;10.56;41.55;99294.69;5052165;28;874;-57
2023/03/12 11:07:30;;;;;;;;;;;;;;;10.37;40.23;99283.09;5051816;28;1953;-58
2023/03/12 11:10:23;;;;;;;;;;;;;;;10.30;40.38;99290.69;5071887;28;1392;-58
2023/03/12 11:13:05;;;;;;;;;;;;;;;10.30;40.77;99294.22;5088614;28;1067;-58
2023/03/12 11:15:42;;;;;;;;;;;;;;;10.23;41.99;99289.53;5092220;28;891;-58
2023/03/12 11:18:24;;;;;;;;;;;;;;;10.33;40.75;99284.34;5092200;28;894;-58
2023/03/12 11:20:51;;;;;;;;;;;;;;;10.59;40.24;99300.19;5092325;28;882;-58
2023/03/12 11:23:23;;;;;;;;;;;;;;;10.68;40.11;99302.44;5092090;28;835;-58
2023/03/12 11:25:55;;;;;;;;;;;;;;;10.53;39.77;99290.78;5091901;28;850;-58
2023/03/12 11:28:28;;;;;;;;;;;;;;;10.58;40.32;99300.59;5091841;28;1926;-58
2023/03/12 11:30:57;;;;;;;;;;;;;;;10.58;39.64;99300.59;5091826;28;859;-58
2023/03/12 11:33:23;;;;;;;;;;;;;;;10.50;40.23;99310.19;5091740;28;831;-58
2023/03/12 11:35:52;;;;;;;;;;;;;;;10.75;40.07;99307.88;5091995;28;852;-58
2023/03/12 11:38:24;;;;;;;;;;;;;;;10.93;39.56;99318.69;5073671;28;1330;-58
2023/03/12 11:40:57;;;;;;;;;;;;;;;10.78;39.29;99306.25;5091766;28;827;-58
2023/03/12 11:43:30;;;;;;;;;;;;;;;10.99;39.56;99305.97;5073522;28;1371;-58
2023/03/12 11:46:09;;;;;;;;;;;;;;;10.94;39.24;99313.94;5091647;28;874;-58
2023/03/12 11:48:38;;;;;;;;;;;;;;;10.77;39.34;99324.03;5091599;28;1957;-58
2023/03/12 11:51:20;;;;;;;;;;;;;;;10.63;39.85;99323.03;5073466;28;1199;-58
2023/03/12 11:54:05;;;;;;;;;;;;;;;10.69;40.11;99311.50;5091848;28;887;-58
2023/03/12 11:56:50;;;;;;;;;;;;;;;10.95;40.63;99308.00;5091701;28;875;-58
2023/03/12 11:59:17;;;;;;;;;;;;;;;10.82;39.84;99321.59;5091504;28;847;-58
2023/03/12 12:01:53;;;;;;;;;;;;;;;10.71;39.93;99320.16;5091524;28;807;-58
2023/03/12 12:04:38;;;;;;;;;;;;;;;10.44;40.64;99320.91;5091439;28;842;-58
2023/03/12 12:07:16;;;;;;;;;;;;;;;10.44;41.39;99328.41;5091431;28;913;-58
2023/03/12 12:09:47;;;;;;;;;;;;;;;10.33;41.15;99325.78;5091319;28;1188;-58
2023/03/12 12:12:19;;;;;;;;;;;;;;;10.49;40.69;99328.72;5091588;28;819;-58
2023/03/12 12:14:49;;;;;;;;;;;;;;;10.60;41.09;99331.34;5091444;28;831;-58
2023/03/12 12:17:25;;;;;;;;;;;;;;;10.72;41.48;99330.81;5091446;28;826;-58
2023/03/12 12:20:11;;;;;;;;;;;;;;;11.00;41.46;99334.38;5091779;28;819;-58
2023/03/12 12:22:50;;;;;;;;;;;;;;;10.77;40.80;99333.09;5095389;28;870;-58
2023/03/12 12:25:30;;;;;;;;;;;;;;;10.41;42.11;99339.09;5095426;28;831;-58
2023/03/12 12:28:07;;;;;;;;;;;;;;;10.43;41.55;99346.94;5095242;28;1910;-58
2023/03/12 12:30:34;;;;;;;;;;;;;;;10.32;42.42;99349.06;5095241;28;812;-58
2023/03/12 12:33:21;;;;;;;;;;;;;;;10.27;43.17;99355.03;5095441;28;869;-58
2023/03/12 12:35:47;;;;;;;;;;;;;;;10.24;41.37;99351.06;5095143;28;839;-58
2023/03/12 12:38:20;;;;;;;;;;;;;;;10.05;42.28;99362.72;5095125;28;811;-58
2023/03/12 12:41:00;;;;;;;;;;;;;;;10.10;42.39;99357.53;5095050;28;898;-58
2023/03/12 12:43:31;;;;;;;;;;;;;;;10.09;42.25;99361.50;5095318;28;831;-58
2023/03/12 12:45:59;;;;;;;;;;;;;;;10.15;42.62;99367.34;5095095;28;831;-58
2023/03/12 12:48:31;;;;;;;;;;;;;;;10.24;42.82;99373.16;5094768;28;1941;-58
2023/03/12 12:51:00;;;;;;;;;;;;;;;9.98;43.32;99377.38;5094856;28;854;-59
2023/03/12 12:53:39;;;;;;;;;;;;;;;9.73;44.10;99369.31;5094806;28;846;-58
2023/03/12 12:56:18;;;;;;;;;;;;;;;9.62;45.08;99391.47;5094790;28;883;-58
2023/03/12 12:58:54;;;;;;;;;;;;;;;9.48;45.28;99384.09;5094666;28;864;-58
2023/03/12 13:01:21;;;;;;;;;;;;;;;9.46;45.82;99385.72;5076465;28;1394;-58
2023/03/12 13:03:48;;;;;;;;;;;;;;;9.26;45.20;99388.19;5094529;28;879;-57
2023/03/12 13:06:15;;;;;;;;;;;;;;;9.29;46.32;99393.69;5094467;28;815;-58
2023/03/12 13:08:44;;;;;;;;;;;;;;;9.30;45.99;99394.47;5094414;28;1889;-57
2023/03/12 13:11:16;;;;;;;;;;;;;;;9.13;45.32;99404.41;5094429;28;879;-58
2023/03/12 13:13:48;;;;;;;;;;;;;;;8.97;45.45;99402.13;5094439;28;855;-58
2023/03/12 13:16:26;;;;;;;;;;;;;;;8.85;45.53;99436.44;5094301;28;870;-57
2023/03/12 13:19:00;;;;;;;;;;;;;;;8.70;45.43;99410.13;5094387;28;843;-57
2023/03/12 13:21:45;;;;;;;;;;;;;;;8.70;45.29;99410.13;5094272;28;863;-57
2023/03/12 13:24:21;;;;;;;;;;;;;;;8.62;45.18;99423.16;5094160;28;870;-57
2023/03/12 13:26:53;;;;;;;;;;;;;;;8.67;45.16;99431.00;5094159;28;816;-58
2023/03/12 13:29:22;;;;;;;;;;;;;;;8.62;44.16;99417.63;5094326;28;1934;-57
2023/03/12 13:31:48;;;;;;;;;;;;;;;8.62;45.00;99422.34;5093891;28;855;-58
2023/03/12 13:34:15;;;;;;;;;;;;;;;8.65;44.12;99416.81;5094035;28;815;-57
2023/03/12 13:36:43;;;;;;;;;;;;;;;8.81;44.69;99429.38;5093893;28;888;-57
2023/03/12 13:39:16;;;;;;;;;;;;;;;9.08;44.84;99429.66;5094213;28;804;-57
2023/03/12 13:41:53;;;;;;;;;;;;;;;9.33;43.64;99427.53;5075778;28;1255;-57
2023/03/12 13:44:22;;;;;;;;;;;;;;;9.53;43.57;99435.31;5094157;28;828;-57
2023/03/12 13:46:56;;;;;;;;;;;;;;;9.58;42.81;99432.91;5093830;28;891;-57
2023/03/12 13:49:23;;;;;;;;;;;;;;;9.72;43.33;99432.00;5093774;28;1890;-57
2023/03/12 13:51:58;;;;;;;;;;;;;;;9.69;42.28;99429.28;5093618;28;804;-57
2023/03/12 13:54:28;;;;;;;;;;;;;;;9.60;41.51;99433.28;5093941;28;862;-57
2023/03/12 13:57:08;;;;;;;;;;;;;;;9.72;42.08;99428.47;5094500;28;898;-57